createdAt,value
2019-02-15T00:01:24.046Z,21.40
2019-02-15T00:03:50.016Z,21.40
2019-02-15T00:06:16.232Z,21.40
2019-02-15T00:08:43.526Z,21.30
2019-02-15T00:11:09.881Z,21.30
2019-02-15T00:13:35.818Z,21.20
2019-02-15T00:16:01.789Z,21.30
2019-02-15T00:18:35.814Z,21.30
2019-02-15T00:21:03.985Z,21.20
2019-02-15T00:23:30.021Z,21.20
2019-02-15T00:25:56.091Z,21.20
2019-02-15T00:28:27.525Z,21.20
2019-02-15T00:30:53.561Z,21.20
2019-02-15T00:33:19.517Z,21.20
2019-02-15T00:35:45.472Z,21.10
2019-02-15T00:38:11.429Z,21.10
2019-02-15T00:40:37.376Z,21.10
2019-02-15T00:43:03.399Z,21.10
2019-02-15T00:45:34.029Z,21.10
2019-02-15T00:48:08.201Z,21.10
2019-02-15T00:50:38.812Z,21.10
2019-02-15T00:53:21.774Z,21.10
2019-02-15T00:55:55.568Z,21.10
2019-02-15T00:58:35.539Z,21.00
2019-02-15T01:01:03.756Z,21.80
2019-02-15T01:03:34.606Z,21.00
2019-02-15T01:06:04.917Z,21.00
2019-02-15T01:08:32.809Z,21.00
2019-02-15T01:11:03.615Z,21.00
2019-02-15T01:13:31.366Z,20.90
2019-02-15T01:15:57.427Z,21.00
2019-02-15T01:18:26.373Z,20.90
2019-02-15T01:20:52.413Z,20.90
2019-02-15T01:23:18.352Z,20.90
2019-02-15T01:25:46.211Z,20.90
2019-02-15T01:28:14.157Z,20.90
2019-02-15T01:30:51.040Z,20.90
2019-02-15T01:33:21.673Z,20.90
2019-02-15T01:36:01.811Z,20.90
2019-02-15T01:38:33.491Z,20.80
2019-02-15T01:41:01.454Z,20.80
2019-02-15T01:43:40.148Z,20.80
2019-02-15T01:46:07.795Z,20.80
2019-02-15T01:48:33.736Z,20.80
2019-02-15T01:50:59.700Z,20.80
2019-02-15T01:53:25.649Z,20.70
2019-02-15T01:55:51.617Z,20.80
2019-02-15T01:58:26.912Z,20.70
2019-02-15T02:00:52.968Z,20.70
2019-02-15T02:03:18.915Z,20.70
2019-02-15T02:05:44.904Z,20.70
2019-02-15T02:08:21.603Z,20.70
2019-02-15T02:10:47.571Z,20.70
2019-02-15T02:13:13.537Z,20.70
2019-02-15T02:15:39.473Z,20.70
2019-02-15T02:18:05.437Z,20.70
2019-02-15T02:20:31.416Z,20.60
2019-02-15T02:22:57.477Z,20.60
2019-02-15T02:25:23.422Z,20.70
2019-02-15T02:27:49.477Z,20.70
2019-02-15T02:30:15.416Z,20.60
2019-02-15T02:32:41.368Z,20.60
2019-02-15T02:35:07.301Z,20.60
2019-02-15T02:37:33.243Z,20.60
2019-02-15T02:39:59.201Z,20.60
2019-02-15T02:42:25.145Z,20.60
2019-02-15T02:44:51.117Z,20.60
2019-02-15T02:47:17.085Z,20.50
2019-02-15T02:49:43.049Z,20.50
2019-02-15T02:52:08.986Z,20.50
2019-02-15T02:54:34.972Z,20.50
2019-02-15T02:57:01.013Z,20.50
2019-02-15T02:59:26.948Z,20.50
2019-02-15T03:01:52.888Z,20.50
2019-02-15T03:04:18.851Z,20.40
2019-02-15T03:06:44.900Z,20.40
2019-02-15T03:09:10.836Z,20.40
2019-02-15T03:11:36.786Z,20.40
2019-02-15T03:14:11.131Z,20.40
2019-02-15T03:16:30.589Z,20.40
2019-02-15T03:18:56.648Z,20.40
2019-02-15T03:21:22.713Z,20.40
2019-02-15T03:23:48.649Z,20.40
2019-02-15T03:26:14.579Z,20.40
2019-02-15T03:28:40.539Z,20.40
2019-02-15T03:31:06.499Z,20.40
2019-02-15T03:33:32.553Z,20.40
2019-02-15T03:36:00.508Z,20.40
2019-02-15T03:38:37.199Z,20.40
2019-02-15T03:41:04.850Z,20.40
2019-02-15T03:43:30.895Z,20.30
2019-02-15T03:45:56.832Z,20.30
2019-02-15T03:48:22.800Z,20.30
2019-02-15T03:50:48.825Z,20.30
2019-02-15T03:53:14.842Z,20.30
2019-02-15T03:55:40.901Z,20.30
2019-02-15T03:58:07.382Z,20.30
2019-02-15T04:00:33.342Z,20.30
2019-02-15T04:02:59.300Z,20.30
2019-02-15T04:05:25.340Z,20.30
2019-02-15T04:07:51.383Z,20.30
2019-02-15T04:10:17.346Z,20.30
2019-02-15T04:12:43.339Z,20.20
2019-02-15T04:15:09.276Z,20.30
2019-02-15T04:17:35.221Z,20.30
2019-02-15T04:20:01.263Z,20.30
2019-02-15T04:22:27.216Z,20.20
2019-02-15T04:24:53.156Z,20.20
2019-02-15T04:27:19.146Z,20.20
2019-02-15T04:29:45.163Z,20.20
2019-02-15T04:32:11.122Z,20.20
2019-02-15T04:34:37.075Z,20.20
2019-02-15T04:37:03.014Z,20.20
2019-02-15T04:39:28.959Z,20.20
2019-02-15T04:41:54.910Z,20.20
2019-02-15T04:44:20.856Z,20.20
2019-02-15T04:46:46.827Z,20.10
2019-02-15T04:49:12.892Z,20.10
2019-02-15T04:51:38.944Z,20.10
2019-02-15T04:54:04.877Z,20.10
2019-02-15T04:56:30.856Z,20.10
2019-02-15T04:58:56.819Z,20.10
2019-02-15T05:01:22.790Z,20.10
2019-02-15T05:03:48.783Z,20.10
2019-02-15T05:06:14.906Z,20.10
2019-02-15T05:08:40.954Z,20.10
2019-02-15T05:11:07.075Z,20.10
2019-02-15T05:13:33.607Z,20.10
2019-02-15T05:16:00.037Z,20.20
2019-02-15T05:18:26.071Z,20.10
2019-02-15T05:20:52.149Z,20.10
2019-02-15T05:23:18.108Z,20.10
2019-02-15T05:25:44.164Z,20.10
2019-02-15T05:28:10.093Z,20.10
2019-02-15T05:30:38.077Z,20.10
2019-02-15T05:33:04.099Z,20.20
2019-02-15T05:35:30.051Z,20.10
2019-02-15T05:37:56.929Z,20.20
2019-02-15T05:40:22.967Z,20.20
2019-02-15T05:42:48.941Z,20.20
2019-02-15T05:45:15.008Z,20.20
2019-02-15T05:47:41.041Z,20.20
2019-02-15T05:50:07.123Z,20.20
2019-02-15T05:52:33.166Z,20.20
2019-02-15T05:54:59.209Z,20.20
2019-02-15T05:57:25.185Z,20.20
2019-02-15T05:59:51.283Z,20.20
2019-02-15T06:02:17.338Z,20.20
2019-02-15T06:04:43.291Z,20.20
2019-02-15T06:07:09.229Z,20.20
2019-02-15T06:09:35.204Z,20.20
2019-02-15T06:12:01.155Z,20.40
2019-02-15T06:14:27.105Z,20.40
2019-02-15T06:16:53.050Z,20.40
2019-02-15T06:19:19.009Z,20.50
2019-02-15T06:21:44.953Z,20.50
2019-02-15T06:24:10.937Z,20.60
2019-02-15T06:26:36.900Z,20.60
2019-02-15T06:29:02.953Z,20.60
2019-02-15T06:31:28.896Z,20.70
2019-02-15T06:33:54.944Z,20.70
2019-02-15T06:36:20.874Z,20.80
2019-02-15T06:38:46.837Z,20.90
2019-02-15T06:41:12.779Z,21.00
2019-02-15T06:43:38.725Z,21.10
2019-02-15T06:46:04.681Z,21.20
2019-02-15T06:48:30.900Z,21.30
2019-02-15T06:50:56.948Z,21.40
2019-02-15T06:53:22.946Z,21.50
2019-02-15T06:55:48.934Z,21.60
2019-02-15T06:58:15.109Z,21.60
2019-02-15T07:00:45.973Z,21.70
2019-02-15T07:03:19.758Z,21.70
2019-02-15T07:05:45.734Z,21.80
2019-02-15T07:08:11.751Z,21.80
2019-02-15T07:10:37.783Z,21.90
2019-02-15T07:13:03.946Z,21.90
2019-02-15T07:15:33.652Z,21.90
2019-02-15T07:17:58.758Z,21.80
2019-02-15T07:20:24.744Z,21.80
2019-02-15T07:22:50.722Z,21.80
2019-02-15T07:25:16.670Z,21.80
2019-02-15T07:27:42.625Z,21.80
2019-02-15T07:30:08.560Z,21.90
2019-02-15T07:32:34.543Z,21.90
2019-02-15T07:35:00.519Z,22.00
2019-02-15T07:37:26.582Z,22.00
2019-02-15T07:39:52.621Z,22.10
2019-02-15T07:42:18.684Z,22.10
2019-02-15T07:44:44.628Z,22.20
2019-02-15T07:47:10.590Z,22.20
2019-02-15T07:49:36.638Z,22.20
2019-02-15T07:52:02.637Z,22.30
2019-02-15T07:54:28.662Z,22.30
2019-02-15T07:56:54.630Z,22.30
2019-02-15T07:59:20.695Z,22.40
2019-02-15T08:01:46.630Z,22.40
2019-02-15T08:04:12.604Z,22.40
2019-02-15T08:06:38.545Z,22.40
2019-02-15T08:09:04.521Z,22.50
2019-02-15T08:11:30.484Z,22.50
2019-02-15T08:13:56.472Z,22.50
2019-02-15T08:16:22.416Z,22.60
2019-02-15T08:18:48.368Z,22.60
2019-02-15T08:21:14.322Z,22.60
2019-02-15T08:23:41.434Z,22.70
2019-02-15T08:26:07.450Z,22.70
2019-02-15T08:28:33.517Z,22.80
2019-02-15T08:30:59.492Z,22.80
2019-02-15T08:33:25.556Z,22.80
2019-02-15T08:35:51.619Z,22.90
2019-02-15T08:38:17.567Z,22.90
2019-02-15T08:40:43.546Z,22.90
2019-02-15T08:43:09.479Z,22.90
2019-02-15T08:45:35.462Z,22.90
2019-02-15T08:48:01.409Z,22.90
2019-02-15T08:50:27.373Z,22.90
2019-02-15T08:52:55.121Z,22.90
2019-02-15T08:55:21.310Z,22.80
2019-02-15T08:57:47.248Z,22.80
2019-02-15T09:00:13.230Z,22.80
2019-02-15T09:02:39.185Z,22.70
2019-02-15T09:05:05.257Z,22.70
2019-02-15T09:07:31.318Z,22.80
2019-02-15T09:09:57.352Z,22.70
2019-02-15T09:12:23.321Z,22.80
2019-02-15T09:14:49.301Z,22.80
2019-02-15T09:17:15.232Z,22.80
2019-02-15T09:19:41.222Z,22.80
2019-02-15T09:22:07.175Z,22.90
2019-02-15T09:24:33.134Z,23.00
2019-02-15T09:27:01.003Z,23.00
2019-02-15T09:29:27.069Z,23.00
2019-02-15T09:31:53.029Z,23.00
2019-02-15T09:34:19.025Z,23.00
2019-02-15T09:36:45.076Z,23.10
2019-02-15T09:39:11.013Z,23.10
2019-02-15T09:41:36.988Z,23.10
2019-02-15T09:44:02.961Z,23.20
2019-02-15T09:46:29.023Z,23.20
2019-02-15T09:48:54.968Z,23.20
2019-02-15T09:51:20.914Z,23.20
2019-02-15T09:53:46.963Z,23.20
2019-02-15T09:56:13.825Z,23.20
2019-02-15T09:58:39.786Z,23.20
2019-02-15T10:01:05.762Z,23.30
2019-02-15T10:03:31.808Z,23.30
2019-02-15T10:05:57.775Z,23.30
2019-02-15T10:08:23.732Z,23.30
2019-02-15T10:10:49.700Z,23.40
2019-02-15T10:13:15.999Z,23.40
2019-02-15T10:15:42.493Z,23.40
2019-02-15T10:18:08.951Z,23.50
2019-02-15T10:20:34.915Z,23.50
2019-02-15T10:23:00.889Z,23.50
2019-02-15T10:25:26.826Z,23.60
2019-02-15T10:27:52.779Z,23.50
2019-02-15T10:30:18.733Z,23.50
2019-02-15T10:32:44.705Z,23.50
2019-02-15T10:35:10.639Z,23.40
2019-02-15T10:37:36.616Z,23.50
2019-02-15T10:40:02.677Z,23.40
2019-02-15T10:42:28.753Z,23.40
2019-02-15T10:44:54.701Z,23.50
2019-02-15T10:47:25.109Z,23.50
2019-02-15T10:49:48.527Z,23.60
2019-02-15T10:52:14.471Z,23.60
2019-02-15T10:54:40.433Z,23.60
2019-02-15T10:57:06.385Z,23.70
2019-02-15T10:59:32.437Z,23.70
2019-02-15T11:01:58.394Z,23.80
2019-02-15T11:04:24.368Z,23.80
2019-02-15T11:06:50.426Z,23.80
2019-02-15T11:09:16.477Z,23.80
2019-02-15T11:11:42.677Z,23.80
2019-02-15T11:14:08.661Z,23.90
2019-02-15T11:16:34.890Z,23.90
2019-02-15T11:19:00.964Z,23.90
2019-02-15T11:21:27.026Z,24.00
2019-02-15T11:23:53.184Z,24.00
2019-02-15T11:26:24.775Z,24.00
2019-02-15T11:28:47.112Z,24.00
2019-02-15T11:31:13.043Z,24.10
2019-02-15T11:33:39.017Z,24.10
2019-02-15T11:36:05.085Z,24.10
2019-02-15T11:38:31.032Z,24.20
2019-02-15T11:40:57.000Z,24.20
2019-02-15T11:43:23.009Z,24.20
2019-02-15T11:45:49.054Z,24.20
2019-02-15T11:48:14.983Z,24.20
2019-02-15T11:50:40.919Z,24.20
2019-02-15T11:53:06.874Z,24.20
2019-02-15T11:55:32.822Z,24.10
2019-02-15T11:57:58.784Z,24.10
2019-02-15T12:00:29.804Z,24.00
2019-02-15T12:02:55.764Z,24.00
2019-02-15T12:05:21.706Z,24.00
2019-02-15T12:07:47.653Z,24.00
2019-02-15T12:10:13.614Z,24.00
2019-02-15T12:12:39.558Z,24.10
2019-02-15T12:15:05.557Z,24.10
2019-02-15T12:17:31.524Z,24.10
2019-02-15T12:19:57.467Z,24.10
2019-02-15T12:22:23.399Z,24.10
2019-02-15T12:24:49.340Z,24.20
2019-02-15T12:27:15.286Z,24.20
2019-02-15T12:29:41.248Z,24.20
2019-02-15T12:32:07.194Z,24.20
2019-02-15T12:34:33.132Z,24.20
2019-02-15T12:36:59.086Z,24.30
2019-02-15T12:39:25.040Z,24.20
2019-02-15T12:41:51.074Z,24.20
2019-02-15T12:44:17.131Z,24.30
2019-02-15T12:46:43.094Z,24.20
2019-02-15T12:49:09.158Z,24.20
2019-02-15T12:51:35.212Z,24.30
2019-02-15T12:54:01.184Z,24.30
2019-02-15T12:56:27.140Z,24.30
2019-02-15T12:58:53.168Z,24.30
2019-02-15T13:01:19.450Z,24.30
2019-02-15T13:03:45.472Z,24.20
2019-02-15T13:06:11.432Z,24.20
2019-02-15T13:08:37.412Z,24.20
2019-02-15T13:11:03.381Z,24.20
2019-02-15T13:13:29.419Z,24.20
2019-02-15T13:15:55.462Z,24.20
2019-02-15T13:18:21.515Z,24.20
2019-02-15T13:20:47.579Z,24.20
2019-02-15T13:23:13.637Z,24.10
2019-02-15T13:25:39.698Z,24.10
2019-02-15T13:28:05.715Z,24.00
2019-02-15T13:30:31.765Z,24.00
2019-02-15T13:32:57.764Z,24.00
2019-02-15T13:35:23.857Z,24.00
2019-02-15T13:37:49.898Z,24.00
2019-02-15T13:40:15.860Z,24.00
2019-02-15T13:42:41.908Z,24.00
2019-02-15T13:45:07.854Z,24.00
2019-02-15T13:47:34.977Z,24.00
2019-02-15T13:50:01.250Z,24.00
2019-02-15T13:52:27.215Z,24.10
2019-02-15T13:54:53.283Z,24.10
2019-02-15T13:57:19.231Z,24.10
2019-02-15T13:59:45.182Z,24.10
2019-02-15T14:02:11.208Z,24.10
2019-02-15T14:04:37.305Z,24.10
2019-02-15T14:07:03.363Z,24.10
2019-02-15T14:09:29.330Z,24.10
2019-02-15T14:11:55.306Z,24.10
2019-02-15T14:14:21.377Z,24.10
2019-02-15T14:16:47.356Z,24.10
2019-02-15T14:19:13.413Z,24.10
2019-02-15T14:21:44.489Z,24.10
2019-02-15T14:24:07.329Z,24.10
2019-02-15T14:26:33.359Z,24.10
2019-02-15T14:28:59.307Z,24.10
2019-02-15T14:31:25.250Z,24.10
2019-02-15T14:33:51.194Z,24.10
2019-02-15T14:36:17.153Z,24.10
2019-02-15T14:38:43.104Z,24.10
2019-02-15T14:41:09.068Z,24.10
2019-02-15T14:43:35.122Z,24.10
2019-02-15T14:46:01.181Z,24.10
2019-02-15T14:48:27.131Z,24.10
2019-02-15T14:50:53.094Z,24.10
2019-02-15T14:53:19.157Z,24.10
2019-02-15T14:55:45.193Z,24.00
2019-02-15T14:58:11.177Z,24.00
2019-02-15T15:00:37.120Z,23.90
2019-02-15T15:03:03.065Z,23.90
2019-02-15T15:05:29.011Z,23.90
2019-02-15T15:07:55.440Z,23.90
2019-02-15T15:10:21.383Z,23.80
2019-02-15T15:12:47.327Z,23.90
2019-02-15T15:15:13.298Z,23.90
2019-02-15T15:17:39.309Z,23.90
2019-02-15T15:20:05.317Z,23.90
2019-02-15T15:22:31.410Z,23.90
2019-02-15T15:24:57.465Z,23.90
2019-02-15T15:27:23.435Z,24.00
2019-02-15T15:29:50.461Z,24.00
2019-02-15T15:32:16.760Z,24.00
2019-02-15T15:34:42.816Z,24.00
2019-02-15T15:37:16.188Z,24.00
2019-02-15T15:39:36.613Z,24.00
2019-02-15T15:42:02.579Z,24.00
2019-02-15T15:44:28.529Z,24.00
2019-02-15T15:46:54.483Z,24.00
2019-02-15T15:49:20.432Z,24.10
2019-02-15T15:51:46.363Z,24.00
2019-02-15T15:54:12.336Z,24.00
2019-02-15T15:56:38.366Z,24.10
2019-02-15T15:59:04.326Z,24.00
2019-02-15T16:01:30.287Z,24.10
2019-02-15T16:03:56.222Z,24.10
2019-02-15T16:06:24.324Z,24.10
2019-02-15T16:08:50.023Z,24.10
2019-02-15T16:11:15.999Z,24.10
2019-02-15T16:13:41.929Z,24.00
2019-02-15T16:16:07.895Z,24.00
2019-02-15T16:18:35.089Z,24.10
2019-02-15T16:21:01.311Z,24.00
2019-02-15T16:23:27.246Z,24.00
2019-02-15T16:25:53.217Z,24.00
2019-02-15T16:28:19.187Z,24.00
2019-02-15T16:30:45.240Z,23.90
2019-02-15T16:33:11.220Z,23.90
2019-02-15T16:35:37.255Z,23.90
2019-02-15T16:38:03.238Z,23.80
2019-02-15T16:40:29.280Z,23.80
2019-02-15T16:42:55.218Z,23.90
2019-02-15T16:45:21.163Z,23.90
2019-02-15T16:47:47.122Z,23.90
2019-02-15T16:50:13.071Z,24.00
2019-02-15T16:52:39.020Z,24.00
2019-02-15T16:55:12.360Z,24.00
2019-02-15T16:57:34.716Z,24.00
2019-02-15T17:00:00.715Z,24.00
2019-02-15T17:02:26.850Z,24.00
2019-02-15T17:04:52.968Z,24.00
2019-02-15T17:07:19.123Z,24.00
2019-02-15T17:09:45.109Z,24.00
2019-02-15T17:12:11.129Z,24.00
2019-02-15T17:14:37.107Z,24.00
2019-02-15T17:17:03.053Z,24.00
2019-02-15T17:19:29.012Z,24.10
2019-02-15T17:21:55.004Z,24.00
2019-02-15T17:24:20.968Z,24.10
2019-02-15T17:26:46.950Z,24.10
2019-02-15T17:29:12.981Z,24.10
2019-02-15T17:31:38.977Z,24.00
2019-02-15T17:34:04.929Z,24.00
2019-02-15T17:36:31.002Z,24.10
2019-02-15T17:38:57.047Z,24.10
2019-02-15T17:41:23.008Z,24.10
2019-02-15T17:43:48.966Z,24.10
2019-02-15T17:46:14.906Z,24.10
2019-02-15T17:48:40.861Z,24.10
2019-02-15T17:51:06.818Z,24.10
2019-02-15T17:53:32.762Z,24.10
2019-02-15T17:55:58.736Z,24.10
2019-02-15T17:58:25.134Z,24.10
2019-02-15T18:00:51.069Z,24.00
2019-02-15T18:03:17.014Z,24.00
2019-02-15T18:05:43.009Z,23.90
2019-02-15T18:08:09.036Z,23.90
2019-02-15T18:10:34.984Z,23.90
2019-02-15T18:13:00.957Z,23.90
2019-02-15T18:15:27.027Z,23.90
2019-02-15T18:17:52.962Z,24.00
2019-02-15T18:20:18.929Z,24.00
2019-02-15T18:22:44.851Z,24.00
2019-02-15T18:25:10.841Z,24.00
2019-02-15T18:27:36.896Z,24.00
2019-02-15T18:30:02.881Z,24.10
2019-02-15T18:32:28.930Z,24.10
2019-02-15T18:34:54.993Z,24.10
2019-02-15T18:37:20.952Z,24.10
2019-02-15T18:39:46.916Z,24.10
2019-02-15T18:42:12.874Z,24.10
2019-02-15T18:44:38.812Z,24.10
2019-02-15T18:47:04.875Z,24.10
2019-02-15T18:49:30.819Z,24.10
2019-02-15T18:51:56.788Z,24.20
2019-02-15T18:54:22.726Z,24.10
2019-02-15T18:56:48.734Z,24.20
2019-02-15T18:59:14.791Z,24.10
2019-02-15T19:01:40.753Z,24.20
2019-02-15T19:04:06.804Z,24.20
2019-02-15T19:06:32.919Z,24.20
2019-02-15T19:08:58.991Z,24.20
2019-02-15T19:11:24.952Z,24.20
2019-02-15T19:13:51.013Z,24.20
2019-02-15T19:16:16.967Z,24.10
2019-02-15T19:18:42.928Z,24.10
2019-02-15T19:21:08.956Z,24.00
2019-02-15T19:23:35.068Z,24.00
2019-02-15T19:26:01.199Z,23.90
2019-02-15T19:28:29.359Z,23.90
2019-02-15T19:30:55.423Z,23.80
2019-02-15T19:33:21.682Z,23.80
2019-02-15T19:35:48.422Z,23.70
2019-02-15T19:38:14.478Z,23.60
2019-02-15T19:40:40.834Z,23.60
2019-02-15T19:43:06.923Z,23.60
2019-02-15T19:45:32.958Z,23.60
2019-02-15T19:47:59.192Z,23.70
2019-02-15T19:50:25.324Z,23.70
2019-02-15T19:52:51.421Z,23.70
2019-02-15T19:55:17.479Z,23.80
2019-02-15T19:57:43.464Z,23.90
2019-02-15T20:00:09.523Z,24.00
2019-02-15T20:02:35.510Z,24.00
2019-02-15T20:05:01.565Z,24.10
2019-02-15T20:07:27.561Z,24.10
2019-02-15T20:09:53.651Z,24.10
2019-02-15T20:12:19.695Z,24.10
2019-02-15T20:14:45.735Z,24.10
2019-02-15T20:17:11.797Z,24.10
2019-02-15T20:19:37.839Z,24.10
2019-02-15T20:22:03.812Z,24.00
2019-02-15T20:24:29.774Z,24.00
2019-02-15T20:26:55.831Z,24.00
2019-02-15T20:29:21.780Z,23.90
2019-02-15T20:31:47.759Z,23.90
2019-02-15T20:34:13.807Z,24.00
2019-02-15T20:36:39.756Z,24.00
2019-02-15T20:39:05.743Z,24.10
2019-02-15T20:41:31.798Z,24.10
2019-02-15T20:43:57.874Z,24.20
2019-02-15T20:46:23.937Z,24.20
2019-02-15T20:49:03.800Z,24.30
2019-02-15T20:51:17.746Z,24.30
2019-02-15T20:53:43.718Z,24.30
2019-02-15T20:56:09.672Z,24.30
2019-02-15T20:58:35.945Z,24.30
2019-02-15T21:01:01.973Z,24.30
2019-02-15T21:03:27.936Z,24.40
2019-02-15T21:05:53.929Z,24.40
2019-02-15T21:08:19.984Z,24.40
2019-02-15T21:10:54.459Z,24.30
2019-02-15T21:13:20.157Z,24.30
2019-02-15T21:15:41.666Z,24.30
2019-02-15T21:18:07.619Z,24.20
2019-02-15T21:20:33.580Z,24.20
2019-02-15T21:22:59.549Z,24.10
2019-02-15T21:25:25.478Z,24.10
2019-02-15T21:27:51.436Z,24.10
2019-02-15T21:30:17.397Z,24.10
2019-02-15T21:32:43.356Z,24.10
2019-02-15T21:35:09.307Z,24.10
2019-02-15T21:37:35.308Z,24.10
2019-02-15T21:40:01.278Z,24.10
2019-02-15T21:42:27.352Z,24.10
2019-02-15T21:44:53.436Z,24.10
2019-02-15T21:47:19.389Z,24.10
2019-02-15T21:49:45.345Z,24.10
2019-02-15T21:52:11.314Z,24.20
2019-02-15T21:54:37.357Z,24.20
2019-02-15T21:57:03.322Z,24.20
2019-02-15T21:59:29.383Z,24.20
2019-02-15T22:01:55.358Z,24.10
2019-02-15T22:04:21.339Z,24.10
2019-02-15T22:06:47.280Z,24.10
2019-02-15T22:09:13.255Z,24.10
2019-02-15T22:11:39.316Z,24.10
2019-02-15T22:14:05.285Z,24.10
2019-02-15T22:16:31.259Z,24.10
2019-02-15T22:18:57.313Z,24.00
2019-02-15T22:21:23.237Z,24.10
2019-02-15T22:23:49.201Z,24.10
2019-02-15T22:26:15.246Z,24.10
2019-02-15T22:28:41.198Z,24.10
2019-02-15T22:31:07.157Z,24.00
2019-02-15T22:33:33.204Z,24.10
2019-02-15T22:35:59.148Z,24.10
2019-02-15T22:38:25.482Z,24.10
2019-02-15T22:40:51.449Z,24.10
2019-02-15T22:43:17.407Z,24.10
2019-02-15T22:45:43.368Z,24.10
2019-02-15T22:48:10.102Z,24.10
2019-02-15T22:50:36.572Z,24.10
2019-02-15T22:53:02.660Z,24.10
2019-02-15T22:55:28.627Z,24.10
2019-02-15T22:58:01.843Z,24.10
2019-02-15T23:00:29.701Z,24.10
2019-02-15T23:02:55.664Z,24.10
2019-02-15T23:05:21.601Z,24.10
2019-02-15T23:07:47.571Z,24.10
2019-02-15T23:10:13.513Z,24.00
2019-02-15T23:12:39.501Z,24.00
2019-02-15T23:15:05.543Z,23.90
2019-02-15T23:17:31.562Z,23.90
2019-02-15T23:19:57.536Z,23.80
2019-02-15T23:22:23.487Z,23.80
2019-02-15T23:24:49.432Z,23.70
2019-02-15T23:27:15.411Z,23.70
2019-02-15T23:29:41.371Z,23.60
2019-02-15T23:32:07.440Z,23.60
2019-02-15T23:34:33.373Z,23.60
2019-02-15T23:36:59.337Z,23.60
2019-02-15T23:39:25.290Z,23.60
2019-02-15T23:41:51.225Z,23.50
2019-02-15T23:44:17.173Z,23.50
2019-02-15T23:46:43.122Z,23.50
2019-02-15T23:49:09.067Z,23.40
2019-02-15T23:51:35.020Z,23.40
2019-02-15T23:54:00.971Z,23.40
2019-02-15T23:56:26.911Z,23.40
2019-02-15T23:58:52.898Z,23.40
